createdAt,value
2017-07-14T00:01:13.352Z,14.70
2017-07-14T00:03:41.701Z,14.58
2017-07-14T00:06:10.065Z,14.41
2017-07-14T00:08:38.408Z,14.35
2017-07-14T00:11:06.903Z,14.23
2017-07-14T00:13:35.261Z,14.14
2017-07-14T00:16:03.608Z,14.03
2017-07-14T00:18:32.373Z,14.17
2017-07-14T00:21:00.719Z,14.10
2017-07-14T00:23:29.075Z,14.05
2017-07-14T00:25:57.415Z,13.98
2017-07-14T00:28:25.771Z,14.06
2017-07-14T00:30:54.121Z,14.27
2017-07-14T00:33:22.521Z,14.24
2017-07-14T00:35:50.863Z,14.13
2017-07-14T00:38:19.230Z,14.07
2017-07-14T00:40:47.977Z,14.03
2017-07-14T00:43:16.697Z,13.97
2017-07-14T00:45:45.427Z,14.09
2017-07-14T00:48:13.897Z,14.01
2017-07-14T00:50:42.257Z,13.85
2017-07-14T00:53:11.004Z,13.88
2017-07-14T00:55:39.369Z,13.82
2017-07-14T00:58:07.722Z,13.77
2017-07-14T01:00:36.071Z,13.74
2017-07-14T01:03:04.817Z,13.76
2017-07-14T01:05:33.177Z,13.81
2017-07-14T01:08:01.523Z,13.67
2017-07-14T01:10:30.359Z,13.66
2017-07-14T01:12:58.714Z,13.64
2017-07-14T01:15:27.077Z,13.66
2017-07-14T01:17:55.821Z,13.67
2017-07-14T01:20:24.526Z,13.63
2017-07-14T01:22:52.882Z,13.52
2017-07-14T01:25:21.238Z,13.69
2017-07-14T01:27:49.599Z,13.64
2017-07-14T01:30:17.944Z,13.61
2017-07-14T01:32:46.299Z,13.69
2017-07-14T01:35:14.650Z,13.76
2017-07-14T01:37:43.014Z,13.84
2017-07-14T01:40:11.355Z,13.83
2017-07-14T01:42:40.024Z,13.95
2017-07-14T01:45:08.367Z,13.88
2017-07-14T01:47:36.716Z,13.91
2017-07-14T01:50:05.480Z,13.79
2017-07-14T01:52:33.823Z,13.68
2017-07-14T01:55:02.200Z,13.73
2017-07-14T01:57:30.543Z,13.73
2017-07-14T01:59:59.498Z,13.72
2017-07-14T02:02:27.855Z,13.74
2017-07-14T02:07:21.841Z,13.88
2017-07-14T02:09:50.187Z,13.78
2017-07-14T02:12:18.945Z,13.80
2017-07-14T02:14:47.288Z,13.80
2017-07-14T02:17:15.652Z,13.81
2017-07-14T02:19:44.012Z,13.73
2017-07-14T02:22:12.761Z,13.78
2017-07-14T02:24:41.113Z,13.67
2017-07-14T02:27:09.920Z,13.60
2017-07-14T02:29:38.282Z,13.56
2017-07-14T02:32:06.623Z,13.40
2017-07-14T02:34:34.988Z,13.26
2017-07-14T02:37:03.335Z,13.26
2017-07-14T02:39:31.693Z,13.28
2017-07-14T02:42:00.035Z,13.33
2017-07-14T02:44:28.404Z,13.38
2017-07-14T02:46:56.743Z,13.52
2017-07-14T02:49:25.256Z,13.64
2017-07-14T02:51:53.593Z,13.75
2017-07-14T02:54:21.935Z,13.98
2017-07-14T02:56:50.287Z,14.03
2017-07-14T02:59:18.648Z,14.04
2017-07-14T03:01:47.017Z,14.13
2017-07-14T03:04:15.360Z,14.08
2017-07-14T03:06:44.112Z,14.03
2017-07-14T03:09:12.479Z,13.91
2017-07-14T03:11:40.844Z,13.95
2017-07-14T03:14:09.188Z,13.97
2017-07-14T03:16:37.949Z,13.91
2017-07-14T03:19:06.305Z,13.90
2017-07-14T03:21:34.793Z,13.94
2017-07-14T03:24:03.145Z,13.91
2017-07-14T03:26:31.567Z,13.88
2017-07-14T03:28:59.937Z,13.85
2017-07-14T03:31:28.284Z,13.99
2017-07-14T03:33:56.644Z,14.07
2017-07-14T03:36:25.002Z,14.03
2017-07-14T03:38:53.369Z,14.03
2017-07-14T03:41:21.713Z,14.14
2017-07-14T03:43:50.087Z,14.11
2017-07-14T03:46:18.428Z,14.25
2017-07-14T03:48:47.483Z,14.22
2017-07-14T03:51:15.832Z,14.23
2017-07-14T03:53:44.179Z,14.34
2017-07-14T03:56:12.930Z,14.47
2017-07-14T03:58:41.280Z,14.65
2017-07-14T04:01:09.635Z,14.81
2017-07-14T04:03:38.385Z,14.90
2017-07-14T04:06:06.735Z,15.08
2017-07-14T04:08:35.079Z,15.12
2017-07-14T04:11:03.845Z,15.34
2017-07-14T04:13:32.190Z,15.64
2017-07-14T04:16:00.560Z,16.42
2017-07-14T04:18:28.917Z,17.74
2017-07-14T04:20:57.642Z,18.55
2017-07-14T04:23:25.991Z,18.12
2017-07-14T04:25:54.350Z,18.09
2017-07-14T04:28:22.789Z,20.51
2017-07-14T04:30:51.141Z,24.37
2017-07-14T04:33:19.501Z,27.55
2017-07-14T04:35:47.853Z,28.10
2017-07-14T04:38:16.878Z,25.12
2017-07-14T04:40:45.219Z,24.28
2017-07-14T04:43:13.569Z,24.09
2017-07-14T04:45:41.929Z,26.88
2017-07-14T04:48:10.276Z,27.27
2017-07-14T04:50:39.136Z,24.90
2017-07-14T04:53:07.491Z,23.34
2017-07-14T04:55:35.863Z,21.78
2017-07-14T04:58:04.216Z,21.07
2017-07-14T05:00:32.989Z,20.80
2017-07-14T05:03:01.728Z,20.18
2017-07-14T05:05:30.211Z,19.76
2017-07-14T05:07:58.564Z,19.61
2017-07-14T05:10:26.917Z,19.38
2017-07-14T05:12:55.671Z,19.37
2017-07-14T05:15:24.019Z,19.29
2017-07-14T05:17:52.380Z,19.15
2017-07-14T05:20:21.117Z,18.97
2017-07-14T05:22:49.480Z,19.10
2017-07-14T05:25:17.824Z,19.09
2017-07-14T05:27:46.572Z,19.03
2017-07-14T05:30:14.925Z,19.01
2017-07-14T05:32:43.285Z,19.24
2017-07-14T05:35:11.627Z,19.37
2017-07-14T05:37:40.187Z,19.86
2017-07-14T05:40:08.533Z,20.45
2017-07-14T05:42:36.886Z,21.16
2017-07-14T05:45:05.642Z,20.95
2017-07-14T05:47:33.998Z,21.09
2017-07-14T05:50:02.355Z,20.71
2017-07-14T05:52:30.713Z,20.40
2017-07-14T05:54:59.673Z,20.39
2017-07-14T05:57:28.013Z,20.52
2017-07-14T05:59:56.384Z,21.05
2017-07-14T06:02:24.829Z,21.80
2017-07-14T06:04:53.327Z,22.20
2017-07-14T06:07:21.675Z,24.75
2017-07-14T06:09:50.029Z,23.85
2017-07-14T06:12:18.397Z,23.11
2017-07-14T06:14:46.744Z,22.59
2017-07-14T06:17:15.495Z,22.30
2017-07-14T06:19:43.853Z,22.01
2017-07-14T06:22:12.216Z,21.58
2017-07-14T06:24:40.878Z,21.51
2017-07-14T06:27:09.650Z,21.70
2017-07-14T06:29:38.005Z,21.44
2017-07-14T06:32:06.369Z,21.79
2017-07-14T06:34:34.726Z,21.87
2017-07-14T06:37:03.094Z,22.00
2017-07-14T06:39:31.840Z,21.61
2017-07-14T06:42:00.411Z,21.83
2017-07-14T06:44:28.776Z,22.11
2017-07-14T06:46:57.121Z,22.68
2017-07-14T06:49:25.867Z,23.44
2017-07-14T06:51:54.206Z,25.52
2017-07-14T06:54:22.577Z,28.29
2017-07-14T06:56:51.325Z,32.43
2017-07-14T06:59:19.686Z,31.74
2017-07-14T07:01:48.059Z,33.00
2017-07-14T07:04:16.415Z,30.68
2017-07-14T07:06:44.764Z,31.76
2017-07-14T07:09:13.133Z,33.22
2017-07-14T07:11:41.475Z,33.54
2017-07-14T07:14:10.077Z,34.18
2017-07-14T07:16:38.701Z,32.72
2017-07-14T07:19:07.449Z,33.62
2017-07-14T07:21:35.813Z,33.26
2017-07-14T07:24:04.168Z,32.45
2017-07-14T07:26:32.532Z,29.42
2017-07-14T07:29:01.285Z,31.90
2017-07-14T07:31:29.841Z,32.24
2017-07-14T07:33:58.201Z,33.91
2017-07-14T07:36:26.539Z,34.79
2017-07-14T07:38:54.895Z,33.21
2017-07-14T07:41:23.250Z,33.11
2017-07-14T07:43:51.596Z,33.80
2017-07-14T07:46:25.691Z,34.87
2017-07-14T07:48:59.619Z,35.53
2017-07-14T07:51:28.388Z,33.24
2017-07-14T07:53:56.993Z,30.24
2017-07-14T07:56:25.740Z,34.39
2017-07-14T07:58:54.105Z,34.81
2017-07-14T08:01:22.443Z,34.64
2017-07-14T08:03:51.394Z,33.29
2017-07-14T08:06:19.743Z,34.17
2017-07-14T08:08:48.087Z,33.54
2017-07-14T08:11:16.853Z,34.73
2017-07-14T08:13:45.205Z,36.51
2017-07-14T08:16:13.570Z,34.04
2017-07-14T08:18:41.911Z,33.25
2017-07-14T08:21:10.908Z,31.58
2017-07-14T08:23:39.656Z,30.32
2017-07-14T08:26:08.009Z,29.70
2017-07-14T08:28:36.359Z,31.12
2017-07-14T08:31:05.125Z,29.91
2017-07-14T08:33:33.480Z,28.04
2017-07-14T08:36:02.307Z,27.59
2017-07-14T08:38:31.051Z,27.03
2017-07-14T08:40:59.402Z,26.67
2017-07-14T08:43:27.747Z,26.21
2017-07-14T08:45:56.101Z,26.25
2017-07-14T08:48:24.451Z,25.47
2017-07-14T08:50:52.796Z,25.77
2017-07-14T08:53:21.545Z,25.29
2017-07-14T08:55:49.887Z,25.51
2017-07-14T08:58:18.241Z,25.62
2017-07-14T09:00:46.979Z,25.53
2017-07-14T09:03:15.341Z,25.53
2017-07-14T09:05:43.694Z,25.40
2017-07-14T09:08:12.445Z,24.89
2017-07-14T09:10:40.783Z,24.77
2017-07-14T09:13:09.142Z,24.84
2017-07-14T09:15:37.883Z,25.27
2017-07-14T09:18:06.572Z,25.91
2017-07-14T09:20:34.911Z,25.54
2017-07-14T09:23:03.256Z,25.66
2017-07-14T09:25:31.627Z,25.92
2017-07-14T09:28:00.223Z,25.84
2017-07-14T09:30:28.967Z,25.70
2017-07-14T09:32:57.311Z,25.41
2017-07-14T09:35:25.654Z,25.45
2017-07-14T09:37:54.016Z,25.11
2017-07-14T09:40:22.638Z,24.89
2017-07-14T09:42:51.375Z,25.43
2017-07-14T09:45:19.720Z,26.03
2017-07-14T09:47:48.072Z,24.76
2017-07-14T09:50:16.408Z,24.33
2017-07-14T09:52:44.763Z,23.34
2017-07-14T09:55:13.108Z,22.90
2017-07-14T09:57:41.482Z,22.61
2017-07-14T10:00:09.823Z,22.46
2017-07-14T10:02:38.299Z,22.68
2017-07-14T10:05:06.647Z,23.20
2017-07-14T10:07:35.484Z,23.62
2017-07-14T10:10:03.834Z,23.27
2017-07-14T10:12:32.199Z,23.06
2017-07-14T10:15:00.539Z,22.76
2017-07-14T10:17:28.900Z,22.85
2017-07-14T10:19:57.267Z,22.88
2017-07-14T10:22:25.854Z,22.61
2017-07-14T10:24:54.209Z,23.16
2017-07-14T10:27:22.560Z,23.53
2017-07-14T10:29:50.916Z,23.55
2017-07-14T10:32:19.263Z,23.93
2017-07-14T10:34:47.629Z,24.59
2017-07-14T10:37:15.967Z,24.82
2017-07-14T10:39:44.323Z,24.21
2017-07-14T10:42:12.685Z,24.51
2017-07-14T10:44:41.047Z,24.26
2017-07-14T10:47:09.403Z,24.04
2017-07-14T10:49:37.851Z,24.52
2017-07-14T10:52:06.195Z,24.76
2017-07-14T10:54:34.547Z,25.42
2017-07-14T10:57:02.891Z,25.29
2017-07-14T10:59:31.244Z,26.14
2017-07-14T11:01:59.590Z,25.57
2017-07-14T11:04:27.936Z,25.95
2017-07-14T11:06:56.539Z,26.14
2017-07-14T11:09:24.897Z,27.58
2017-07-14T11:11:53.247Z,28.06
2017-07-14T11:14:21.582Z,27.78
2017-07-14T11:16:50.078Z,28.19
2017-07-14T11:19:18.429Z,28.77
2017-07-14T11:21:46.782Z,28.86
2017-07-14T11:24:15.127Z,29.92
2017-07-14T11:26:43.463Z,28.93
2017-07-14T11:29:11.825Z,28.11
2017-07-14T11:31:40.159Z,28.37
2017-07-14T11:34:08.507Z,27.78
2017-07-14T11:36:37.569Z,27.91
2017-07-14T11:39:05.919Z,26.82
2017-07-14T11:41:34.275Z,26.26
2017-07-14T11:44:03.341Z,26.35
2017-07-14T11:46:31.683Z,26.20
2017-07-14T11:49:00.040Z,25.59
2017-07-14T11:51:28.426Z,25.39
2017-07-14T11:53:56.766Z,25.62
2017-07-14T11:56:25.113Z,25.15
2017-07-14T11:58:53.457Z,25.35
2017-07-14T12:01:21.811Z,25.23
2017-07-14T12:03:50.545Z,25.02
2017-07-14T12:06:18.930Z,24.91
2017-07-14T12:08:47.280Z,24.82
2017-07-14T12:11:15.804Z,25.08
2017-07-14T12:13:44.169Z,24.63
2017-07-14T12:16:12.528Z,24.52
2017-07-14T12:18:40.884Z,24.91
2017-07-14T12:21:09.628Z,25.39
2017-07-14T12:23:37.979Z,25.30
2017-07-14T12:26:06.461Z,24.92
2017-07-14T12:28:34.803Z,24.86
2017-07-14T12:31:03.552Z,24.65
2017-07-14T12:33:32.140Z,24.64
2017-07-14T12:36:00.496Z,24.56
2017-07-14T12:38:28.840Z,25.12
2017-07-14T12:40:57.186Z,24.76
2017-07-14T12:43:25.537Z,24.91
2017-07-14T12:45:54.048Z,26.18
2017-07-14T12:48:22.383Z,25.88
2017-07-14T12:50:50.746Z,25.71
2017-07-14T12:53:19.493Z,25.68
2017-07-14T12:55:47.844Z,26.14
2017-07-14T12:58:16.191Z,26.42
2017-07-14T13:00:44.945Z,26.70
2017-07-14T13:03:13.280Z,26.42
2017-07-14T13:05:41.690Z,26.55
2017-07-14T13:08:10.041Z,26.36
2017-07-14T13:10:38.547Z,25.74
2017-07-14T13:13:06.900Z,25.43
2017-07-14T13:15:35.277Z,25.42
2017-07-14T13:18:03.632Z,25.58
2017-07-14T13:20:32.376Z,25.55
2017-07-14T13:23:00.740Z,25.33
2017-07-14T13:25:29.078Z,25.41
2017-07-14T13:27:57.836Z,25.48
2017-07-14T13:30:26.184Z,25.73
2017-07-14T13:32:54.531Z,25.95
2017-07-14T13:35:23.272Z,26.05
2017-07-14T13:37:51.841Z,26.40
2017-07-14T13:40:20.187Z,26.26
2017-07-14T13:42:48.541Z,25.85
2017-07-14T13:45:16.909Z,26.11
2017-07-14T13:47:45.249Z,26.82
2017-07-14T13:50:13.601Z,26.55
2017-07-14T13:52:42.335Z,26.44
2017-07-14T13:55:10.710Z,25.37
2017-07-14T13:57:39.047Z,25.50
2017-07-14T14:00:07.796Z,25.89
2017-07-14T14:02:36.144Z,26.32
2017-07-14T14:05:04.503Z,25.90
2017-07-14T14:07:32.852Z,25.60
2017-07-14T14:10:01.400Z,25.95
2017-07-14T14:12:29.744Z,25.84
2017-07-14T14:14:58.163Z,25.38
2017-07-14T14:17:26.519Z,25.15
2017-07-14T14:19:54.869Z,25.08
2017-07-14T14:22:23.614Z,24.44
2017-07-14T14:24:51.972Z,24.20
2017-07-14T14:27:20.319Z,24.15
2017-07-14T14:29:49.069Z,23.95
2017-07-14T14:32:17.412Z,24.50
2017-07-14T14:34:45.768Z,24.52
2017-07-14T14:37:14.124Z,25.01
2017-07-14T14:39:42.459Z,25.28
2017-07-14T14:42:10.944Z,25.22
2017-07-14T14:44:39.299Z,25.76
2017-07-14T14:47:07.634Z,25.95
2017-07-14T14:49:35.985Z,25.98
2017-07-14T14:52:04.338Z,26.01
2017-07-14T14:54:32.686Z,25.80
2017-07-14T14:57:01.458Z,25.49
2017-07-14T14:59:29.848Z,25.56
2017-07-14T15:01:58.197Z,25.37
2017-07-14T15:04:26.548Z,25.12
2017-07-14T15:06:54.910Z,25.23
2017-07-14T15:09:23.265Z,25.37
2017-07-14T15:11:51.621Z,25.48
2017-07-14T15:14:19.970Z,25.37
2017-07-14T15:16:48.312Z,25.39
2017-07-14T15:19:17.313Z,25.50
2017-07-14T15:21:46.053Z,25.64
2017-07-14T15:24:14.391Z,25.83
2017-07-14T15:26:42.749Z,25.69
2017-07-14T15:29:11.232Z,25.54
2017-07-14T15:31:39.995Z,25.35
2017-07-14T15:34:08.349Z,25.52
2017-07-14T15:36:36.714Z,25.42
2017-07-14T15:39:05.072Z,25.06
2017-07-14T15:41:33.523Z,25.43
2017-07-14T15:44:01.863Z,25.50
2017-07-14T15:46:30.384Z,25.69
2017-07-14T15:48:58.744Z,25.01
2017-07-14T15:51:27.094Z,25.39
2017-07-14T15:53:55.455Z,25.62
2017-07-14T15:56:23.795Z,25.37
2017-07-14T15:58:52.162Z,24.79
2017-07-14T16:01:20.499Z,24.77
2017-07-14T16:03:48.860Z,25.16
2017-07-14T16:06:17.586Z,25.37
2017-07-14T16:08:45.939Z,25.51
2017-07-14T16:11:14.287Z,25.20
2017-07-14T16:13:43.561Z,25.42
2017-07-14T16:16:11.913Z,25.08
2017-07-14T16:18:40.253Z,25.15
2017-07-14T16:21:08.603Z,25.06
2017-07-14T16:23:36.942Z,24.97
2017-07-14T16:26:05.333Z,25.22
2017-07-14T16:28:33.690Z,25.15
2017-07-14T16:31:02.435Z,25.05
2017-07-14T16:33:30.786Z,25.05
2017-07-14T16:35:59.138Z,25.08
2017-07-14T16:38:27.803Z,25.04
2017-07-14T16:40:56.560Z,25.05
2017-07-14T16:43:24.913Z,24.95
2017-07-14T16:45:53.718Z,24.99
2017-07-14T16:48:22.068Z,24.58
2017-07-14T16:50:50.415Z,24.88
2017-07-14T16:53:19.177Z,24.70
2017-07-14T16:55:47.548Z,24.70
2017-07-14T16:58:16.578Z,24.33
2017-07-14T17:00:45.323Z,24.18
2017-07-14T17:03:13.686Z,24.26
2017-07-14T17:05:42.027Z,24.22
2017-07-14T17:08:10.567Z,24.79
2017-07-14T17:10:38.912Z,24.94
2017-07-14T17:13:07.265Z,24.33
2017-07-14T17:15:36.015Z,24.17
2017-07-14T17:18:04.364Z,24.22
2017-07-14T17:20:32.767Z,23.85
2017-07-14T17:23:01.105Z,23.59
2017-07-14T17:25:29.846Z,23.45
2017-07-14T17:27:58.187Z,23.38
2017-07-14T17:30:26.553Z,23.28
2017-07-14T17:32:55.296Z,23.12
2017-07-14T17:35:23.657Z,23.19
2017-07-14T17:37:51.999Z,23.04
2017-07-14T17:40:20.361Z,22.82
2017-07-14T17:42:49.112Z,22.83
2017-07-14T17:45:17.481Z,22.83
2017-07-14T17:47:45.828Z,22.66
2017-07-14T17:50:14.193Z,22.78
2017-07-14T17:52:42.922Z,22.76
2017-07-14T17:55:11.411Z,22.69
2017-07-14T17:57:39.791Z,22.83
2017-07-14T18:00:08.141Z,23.04
2017-07-14T18:02:36.508Z,22.87
2017-07-14T18:05:04.897Z,22.74
2017-07-14T18:07:33.260Z,22.49
2017-07-14T18:10:02.000Z,22.32
2017-07-14T18:12:30.347Z,22.22
2017-07-14T18:14:58.687Z,22.08
2017-07-14T18:17:27.048Z,22.02
2017-07-14T18:19:55.401Z,21.87
2017-07-14T18:22:23.761Z,21.82
2017-07-14T18:24:52.646Z,21.84
2017-07-14T18:27:21.167Z,21.91
2017-07-14T18:29:49.523Z,21.98
2017-07-14T18:32:17.868Z,21.93
2017-07-14T18:34:46.232Z,21.78
2017-07-14T18:37:14.568Z,21.69
2017-07-14T18:39:42.935Z,21.62
2017-07-14T18:42:11.330Z,21.58
2017-07-14T18:44:39.827Z,21.60
2017-07-14T18:47:08.196Z,21.63
2017-07-14T18:49:36.543Z,21.62
2017-07-14T18:52:04.905Z,21.65
2017-07-14T18:54:33.255Z,21.56
2017-07-14T18:57:01.607Z,21.45
2017-07-14T18:59:29.952Z,21.39
2017-07-14T19:01:58.691Z,21.45
2017-07-14T19:04:27.044Z,21.36
2017-07-14T19:06:55.417Z,21.30
2017-07-14T19:09:23.751Z,21.26
2017-07-14T19:11:52.320Z,21.31
2017-07-14T19:14:20.988Z,21.22
2017-07-14T19:16:49.349Z,21.19
2017-07-14T19:19:17.715Z,21.01
2017-07-14T19:21:46.460Z,20.88
2017-07-14T19:24:14.822Z,20.75
2017-07-14T19:26:43.172Z,20.68
2017-07-14T19:29:11.836Z,20.60
2017-07-14T19:31:40.587Z,20.43
2017-07-14T19:34:08.931Z,20.34
2017-07-14T19:36:37.272Z,20.30
2017-07-14T19:39:05.633Z,20.23
2017-07-14T19:41:33.975Z,20.02
2017-07-14T19:44:02.339Z,19.92
2017-07-14T19:46:31.460Z,19.87
2017-07-14T19:48:59.908Z,19.84
2017-07-14T19:51:28.656Z,19.70
2017-07-14T19:53:57.184Z,19.71
2017-07-14T19:56:25.536Z,19.77
2017-07-14T19:58:53.893Z,19.64
2017-07-14T20:01:22.274Z,19.53
2017-07-14T20:03:50.624Z,19.35
2017-07-14T20:06:19.267Z,19.29
2017-07-14T20:08:48.149Z,19.19
2017-07-14T20:11:16.531Z,18.96
2017-07-14T20:13:44.884Z,18.89
2017-07-14T20:16:13.244Z,18.81
2017-07-14T20:18:41.616Z,18.77
2017-07-14T20:21:10.022Z,18.69
2017-07-14T20:23:38.362Z,18.61
2017-07-14T20:26:06.717Z,18.55
2017-07-14T20:28:35.081Z,18.49
2017-07-14T20:31:03.429Z,18.35
2017-07-14T20:33:31.789Z,18.39
2017-07-14T20:36:00.182Z,18.57
2017-07-14T20:38:28.539Z,18.70
2017-07-14T20:40:56.901Z,18.74
2017-07-14T20:43:25.568Z,18.65
2017-07-14T20:45:53.924Z,18.54
2017-07-14T20:48:22.277Z,18.56
2017-07-14T20:50:50.627Z,18.56
2017-07-14T20:53:19.368Z,18.69
2017-07-14T20:55:47.728Z,18.87
2017-07-14T20:58:16.396Z,19.04
2017-07-14T21:00:44.761Z,19.04
2017-07-14T21:03:13.503Z,19.11
2017-07-14T21:05:41.859Z,19.11
2017-07-14T21:08:10.209Z,19.15
2017-07-14T21:10:39.150Z,19.09
2017-07-14T21:13:07.505Z,19.04
2017-07-14T21:15:35.845Z,19.03
2017-07-14T21:18:04.195Z,19.01
2017-07-14T21:20:32.553Z,19.02
2017-07-14T21:23:00.920Z,19.04
2017-07-14T21:25:29.273Z,19.00
2017-07-14T21:27:58.264Z,18.96
2017-07-14T21:30:27.017Z,19.02
2017-07-14T21:32:55.378Z,19.03
2017-07-14T21:35:23.732Z,18.98
2017-07-14T21:37:52.109Z,18.94
2017-07-14T21:40:20.477Z,18.88
2017-07-14T21:42:49.484Z,18.78
2017-07-14T21:45:17.837Z,18.82
2017-07-14T21:47:46.283Z,18.70
2017-07-14T21:50:14.635Z,18.58
2017-07-14T21:52:42.982Z,18.54
2017-07-14T21:55:11.326Z,18.46
2017-07-14T21:57:39.685Z,18.40
2017-07-14T22:00:08.053Z,18.30
2017-07-14T22:02:36.408Z,18.22
2017-07-14T22:05:05.396Z,18.18
2017-07-14T22:07:33.743Z,18.19
2017-07-14T22:10:02.104Z,18.02
2017-07-14T22:12:30.456Z,17.93
2017-07-14T22:14:59.329Z,17.89
2017-07-14T22:17:27.681Z,17.82
2017-07-14T22:19:56.027Z,17.74
2017-07-14T22:22:24.384Z,17.63
2017-07-14T22:24:52.759Z,17.61
2017-07-14T22:27:21.155Z,17.53
2017-07-14T22:29:49.509Z,17.45
2017-07-14T22:32:18.251Z,17.28
2017-07-14T22:34:46.613Z,17.31
2017-07-14T22:37:15.216Z,17.24
2017-07-14T22:39:43.563Z,17.14
2017-07-14T22:42:11.911Z,17.11
2017-07-14T22:44:40.659Z,17.08
2017-07-14T22:47:09.022Z,17.00
2017-07-14T22:49:37.372Z,16.90
2017-07-14T22:52:06.119Z,16.98
2017-07-14T22:54:34.585Z,17.00
2017-07-14T22:57:02.923Z,16.90
2017-07-14T22:59:31.695Z,16.88
2017-07-14T23:02:00.444Z,16.96
2017-07-14T23:04:29.154Z,16.77
2017-07-14T23:06:57.505Z,16.68
2017-07-14T23:09:25.861Z,16.69
2017-07-14T23:11:54.249Z,16.44
2017-07-14T23:14:22.599Z,16.39
2017-07-14T23:16:51.354Z,16.32
2017-07-14T23:19:19.705Z,16.23
2017-07-14T23:21:48.069Z,16.20
2017-07-14T23:24:16.415Z,16.14
2017-07-14T23:26:45.178Z,16.07
2017-07-14T23:29:13.524Z,15.99
2017-07-14T23:31:41.893Z,16.03
2017-07-14T23:34:10.242Z,15.97
2017-07-14T23:36:39.213Z,16.02
2017-07-14T23:39:07.577Z,15.96
2017-07-14T23:41:35.937Z,15.75
2017-07-14T23:44:04.290Z,15.77
2017-07-14T23:46:32.644Z,15.77
2017-07-14T23:49:01.004Z,15.72
2017-07-14T23:51:29.368Z,15.71
2017-07-14T23:53:57.731Z,15.71
2017-07-14T23:56:26.095Z,15.64
2017-07-14T23:58:54.824Z,15.68
